Terminal Aerodrome Forecast
Issued by NWS

Home | Current Version | Previous Version | Text Only | Print | Product List | Glossary On
Versions: 1 2 3 4 5 6 7 8 9 10 11 12 13 14 15
000
FTUS41 KILN 222300
TAFLCK
TAF
KLCK 222330Z 2300/2324 07008KT P6SM OVC100
     FM230700 14010KT P6SM VCSH OVC030
      TEMPO 2308/2311 3SM -SHRA OVC015
     FM231100 17012KT P6SM VCSH OVC015
     FM231900 18008KT P6SM VCSH OVC012
     FM232300 15006KT P6SM VCSH OVC010=

USA.gov is the U.S. government's official web portal to all federal, state and local government web resources and services.